Little Rock, AR (72204)

10:01 PM CST on November 28, 2014 (GMT -0600)
Adams | Change Station
CLOSE
Current Station
Airport
Location: Little Rock,
Elevation: 259 ft
Nearby Weather Stations

Elev 259 ft 34.73 °N, 92.24 °W | Updated 8 minutes ago

Clear
Clear
48 °F
Feels Like 48 °F
N
9
Wind Variable Wind from South

Today
High -- | Low -- °F
--% Chance of Precip.
Yesterday
High -- | Low -- °F
Precip. -- in
6:55 AM 4:58 PM
Waxing Crescent, 47% visible
Pressure 30.07 in
Visibility 10.0 miles
Clouds Few 25000 ft
Dew Point 35 °F
Humidity 61%
Rainfall 0.01 in
Snow Depth Not available.
UV 0 out of 12
Pollen 3.60 out of 12
Air Quality Not available.
Flu Activity Not available.
METAR KLIT 290353Z 19008KT 10SM FEW250 09/02 A3006 RMK AO2 SLP182 T00890017

More Conditions Fewer Conditions

Pressure 30.07 in
Visibility 10.0 miles
Clouds Few 25000 ft
Dew Point 35 °F
Humidity 61%
Rainfall 0.01 in
Snow Depth Not available.
UV 0 out of 12
Pollen 3.60 out of 12
Air Quality Not available.
Flu Activity Not available.
METAR KLIT 290353Z 19008KT 10SM FEW250 09/02 A3006 RMK AO2 SLP182 T00890017

More Conditions Fewer Conditions

10-Day Weather Forecast

Almanac

Astronomy

Nov. 28, 2014 Rise Set
Actual Time
Civil Twilight
Nautical Twilight
Astronomical Twilight
Moon
Length of Visible Light
Length of Day
Tomorrow will be .
, % of the Moon is Illuminated

Today's Extremes

State Highs State Lows

Community

WunderPhotos

Upload Photos

1,774,396 photos uploaded!

WunderBlogs® & News

Nearby

Air Quality

  Air Quality AQ Index Pollutant
Not available.

Snow Depth

Station Depth Elevation

Earthquake Activity

City Distance Mag. Time & Date
Minimum magnitude displayed is 2.5.

Coastal Water Temperatures

Place Temperature

Nearby Weather Stations